Time;durP1;ratioP1;P1;durP2;ratioP2;P2;SDS_P1;SDS_P2;PMS_P1;PMS_P2;Temp;Humidity;BMP_temperature;BMP_pressure;BME280_temperature;BME280_humidity;BME280_pressure;Samples;Min_cycle;Max_cycle;Signal;HPM_P1;HPM_P2
2021/07/05 05:29:07;;;;;;;3.55;1.60;;;;;;;18.12;73.91;99397.31;2220842;40;20053;-90
2021/07/05 05:30:40;;;;;;;6.40;1.65;;;;;;;18.13;74.17;99402.53;2223554;40;20843;-90
2021/07/05 05:32:11;;;;;;;13.82;1.63;;;;;;;18.12;74.05;99400.00;2210277;40;20018;-88
2021/07/05 05:33:43;;;;;;;4.13;1.40;;;;;;;18.11;74.12;99415.41;2203984;40;20821;-90
2021/07/05 05:35:19;;;;;;;4.25;1.40;;;;;;;18.11;74.33;99399.19;2204296;40;20033;-89
2021/07/05 05:36:51;;;;;;;6.97;1.40;;;;;;;18.13;73.92;99398.97;2204141;40;20042;-89
2021/07/05 05:38:28;;;;;;;5.30;1.63;;;;;;;18.16;74.00;99404.78;2185741;40;20032;-89
2021/07/05 07:34:22;;;;;;;3.65;1.17;;;;;;;19.31;70.24;99399.81;2220190;40;19940;-88
2021/07/05 07:35:55;;;;;;;5.03;1.50;;;;;;;19.36;70.09;99407.28;2203265;40;20034;-89
2021/07/05 07:37:27;;;;;;;4.07;1.50;;;;;;;19.32;70.46;99415.03;2185217;40;20036;-86
2021/07/05 07:39:04;;;;;;;4.57;1.30;;;;;;;19.33;70.22;99412.09;2184809;40;20107;-87
2021/07/05 09:09:36;;;;;;;3.30;1.02;;;;;;;20.86;64.84;99361.25;2218407;40;20139;-86
2021/07/05 09:11:10;;;;;;;4.38;1.10;;;;;;;20.93;64.44;99362.00;2221464;40;20033;-86
2021/07/05 09:12:41;;;;;;;2.88;1.10;;;;;;;20.99;64.93;99365.69;2221406;40;20040;-86
2021/07/05 09:14:15;;;;;;;4.07;1.40;;;;;;;21.13;64.30;99369.03;2220695;40;20095;-86
2021/07/05 09:15:49;;;;;;;4.03;1.00;;;;;;;21.23;64.07;99371.19;2221013;40;20033;-86
2021/07/05 09:17:22;;;;;;;2.75;1.15;;;;;;;21.26;63.93;99366.09;2221492;40;20032;-86
2021/07/05 09:18:54;;;;;;;3.80;1.35;;;;;;;21.16;63.79;99366.69;2221886;40;20029;-86
2021/07/05 09:20:26;;;;;;;3.25;1.10;;;;;;;21.10;64.09;99366.78;2222243;40;20026;-87
2021/07/05 09:22:00;;;;;;;3.50;1.40;;;;;;;21.10;64.20;99369.50;2222245;40;20029;-86
2021/07/05 09:23:31;;;;;;;3.55;1.20;;;;;;;21.08;64.38;99374.31;2222427;40;20565;-85
2021/07/05 09:25:04;;;;;;;3.88;1.13;;;;;;;21.01;64.49;99367.09;2224494;40;20033;-85
2021/07/05 09:26:40;;;;;;;5.30;1.25;;;;;;;21.02;64.76;99376.06;2228417;40;20464;-86
2021/07/05 09:28:11;;;;;;;4.60;1.10;;;;;;;21.06;65.11;99373.75;2228052;40;20037;-88
2021/07/05 09:29:44;;;;;;;3.42;1.15;;;;;;;21.06;64.13;99376.47;2221989;40;20545;-82
2021/07/05 09:31:26;;;;;;;3.28;1.13;;;;;;;21.13;63.65;99374.47;2221425;40;20586;-86
2021/07/05 09:33:20;;;;;;;3.25;0.85;;;;;;;21.01;62.74;99374.44;2213595;40;20020;-89
2021/07/05 09:34:52;;;;;;;2.33;0.82;;;;;;;20.91;63.11;99368.72;2209951;40;20497;-90
2021/07/05 09:36:24;;;;;;;2.97;1.00;;;;;;;20.85;63.28;99367.75;2197831;40;20028;-90
2021/07/05 09:39:29;;;;;;;1.92;0.80;;;;;;;20.82;63.11;99373.63;2215215;40;20092;-89
2021/07/05 09:41:18;;;;;;;6.50;1.20;;;;;;;20.74;62.89;99380.19;2216003;40;20030;-88
2021/07/05 09:42:51;;;;;;;3.38;0.90;;;;;;;20.69;63.66;99375.41;2215399;40;20033;-84
2021/07/05 09:44:25;;;;;;;4.80;1.20;;;;;;;20.71;63.11;99373.31;2214960;40;20041;-83
2021/07/05 09:45:56;;;;;;;3.00;1.00;;;;;;;20.74;63.07;99374.75;2215239;40;20022;-87
2021/07/05 09:47:28;;;;;;;3.25;1.23;;;;;;;20.75;62.99;99376.41;2215828;40;20029;-85
2021/07/05 09:49:08;;;;;;;2.25;0.88;;;;;;;20.81;62.84;99363.81;2214665;40;20402;-83
2021/07/05 09:50:41;;;;;;;5.07;1.20;;;;;;;20.85;63.10;99365.84;2216025;40;20050;-87
2021/07/05 09:52:16;;;;;;;3.60;1.02;;;;;;;20.80;63.52;99371.16;2209966;40;20027;-88
2021/07/05 09:53:49;;;;;;;2.95;0.90;;;;;;;20.83;63.64;99361.69;2209512;40;20038;-87
2021/07/05 09:55:22;;;;;;;4.22;1.20;;;;;;;20.87;63.66;99354.78;2210046;40;20073;-89
2021/07/05 10:43:46;;;;;;;2.90;0.73;;;;;;;20.48;60.99;99346.03;2212387;40;20061;-87
2021/07/05 10:45:19;;;;;;;1.52;0.55;;;;;;;20.61;61.24;99348.56;2209004;40;20066;-89
2021/07/05 10:46:53;;;;;;;2.58;0.88;;;;;;;20.74;60.90;99339.44;2209654;40;20026;-87
2021/07/05 10:48:39;;;;;;;1.77;0.60;;;;;;;20.84;60.66;99342.44;2209765;40;20044;-87
2021/07/05 10:50:47;;;;;;;2.35;0.70;;;;;;;20.97;60.61;99346.06;2213403;40;20041;-85
2021/07/05 10:52:20;;;;;;;2.38;0.63;;;;;;;21.07;60.18;99335.47;2215247;40;20276;-84
2021/07/05 10:53:54;;;;;;;1.65;0.60;;;;;;;21.17;59.69;99341.16;2214813;40;20026;-85
2021/07/05 10:55:38;;;;;;;1.73;0.60;;;;;;;21.26;59.44;99333.50;2215562;40;20029;-86
2021/07/05 10:57:10;;;;;;;1.52;0.70;;;;;;;21.27;59.43;99335.16;2209681;40;20584;-87
2021/07/05 10:58:42;;;;;;;2.15;0.60;;;;;;;21.19;59.83;99343.66;2209618;40;20066;-89
2021/07/05 11:00:19;;;;;;;1.98;0.80;;;;;;;21.26;60.00;99338.13;2209673;40;20038;-87
2021/07/05 11:01:50;;;;;;;3.20;0.80;;;;;;;21.35;59.39;99336.72;2209500;40;20034;-86
2021/07/05 11:03:45;;;;;;;1.80;0.50;;;;;;;21.44;59.39;99338.03;2208437;40;20038;-88
2021/07/05 11:05:38;;;;;;;2.03;0.65;;;;;;;21.43;59.37;99338.28;2209425;40;20030;-88
2021/07/05 11:07:14;;;;;;;1.88;0.70;;;;;;;21.28;59.70;99336.81;2209937;40;20065;-88
2021/07/05 11:08:49;;;;;;;2.45;0.85;;;;;;;21.21;59.97;99341.53;2209533;40;20462;-89
2021/07/05 11:10:27;;;;;;;1.98;0.60;;;;;;;21.19;60.31;99341.78;2209291;40;20046;-87
2021/07/05 11:12:00;;;;;;;2.40;0.70;;;;;;;21.13;60.58;99347.31;2209151;40;20556;-89
2021/07/05 11:13:31;;;;;;;2.15;0.80;;;;;;;21.15;61.02;99345.19;2209616;40;20031;-88
2021/07/05 11:15:03;;;;;;;3.45;0.70;;;;;;;21.10;61.34;99345.03;2209705;40;20026;-89
2021/07/05 11:17:03;;;;;;;2.22;0.90;;;;;;;21.04;61.53;99341.34;2209831;40;20035;-86
2021/07/05 11:18:56;;;;;;;2.35;0.82;;;;;;;20.95;61.98;99335.44;2221942;40;20030;-89
2021/07/05 11:22:07;;;;;;;2.60;0.85;;;;;;;20.98;62.41;99337.66;2221529;40;20054;-89
2021/07/05 11:24:17;;;;;;;2.88;0.90;;;;;;;21.01;62.50;99337.22;2209222;40;20027;-88
2021/07/05 11:27:47;;;;;;;2.17;0.82;;;;;;;20.95;63.08;99337.31;2209126;40;20081;-91
2021/07/05 11:29:23;;;;;;;2.17;0.70;;;;;;;20.99;63.25;99333.06;2210066;40;20038;-88
2021/07/05 11:30:57;;;;;;;2.22;0.80;;;;;;;21.07;63.00;99329.19;2209693;40;20038;-90
2021/07/05 11:32:37;;;;;;;1.92;0.63;;;;;;;21.19;62.78;99322.75;2210028;40;20023;-91
2021/07/05 11:35:49;;;;;;;2.78;0.73;;;;;;;21.22;62.64;99323.31;2215065;40;20288;-87
2021/07/05 11:37:33;;;;;;;2.05;0.70;;;;;;;21.29;62.46;99311.28;2215324;40;20632;-87
2021/07/05 11:39:06;;;;;;;2.30;0.70;;;;;;;21.27;62.61;99307.97;2202902;40;20051;-89
2021/07/05 12:05:08;;;;;;;2.10;0.80;;;;;;;21.43;62.71;99297.50;2214786;40;20038;-89
2021/07/05 12:06:48;;;;;;;2.10;0.90;;;;;;;21.47;62.92;99302.25;2214155;40;20026;-87
2021/07/05 12:08:19;;;;;;;2.63;0.88;;;;;;;21.50;62.81;99295.50;2209737;40;20034;-87
2021/07/05 12:09:53;;;;;;;2.78;0.60;;;;;;;21.57;62.79;99290.75;2209393;40;20047;-88
2021/07/05 12:11:36;;;;;;;2.88;1.05;;;;;;;21.60;62.66;99289.50;2209700;40;20053;-88
2021/07/05 12:13:16;;;;;;;2.40;0.90;;;;;;;21.65;62.65;99295.88;2209078;40;20552;-87
2021/07/05 12:14:50;;;;;;;2.92;0.88;;;;;;;21.74;62.36;99295.53;2209278;40;20085;-89
2021/07/05 12:16:27;;;;;;;3.35;0.90;;;;;;;21.75;62.51;99297.19;2209627;40;20089;-87
2021/07/05 12:17:59;;;;;;;2.50;0.93;;;;;;;21.72;62.49;99289.50;2209576;40;20045;-85
2021/07/05 12:19:33;;;;;;;5.10;1.13;;;;;;;21.69;62.52;99292.69;2202568;40;20054;-87
2021/07/05 12:21:07;;;;;;;3.10;1.08;;;;;;;21.64;62.81;99290.69;2209385;40;20031;-89
2021/07/05 12:22:39;;;;;;;3.40;1.27;;;;;;;21.66;62.87;99294.00;2209457;40;20084;-88
2021/07/05 12:24:13;;;;;;;3.15;1.08;;;;;;;21.73;62.77;99296.59;2190526;40;20032;-88
2021/07/05 12:25:45;;;;;;;5.35;1.15;;;;;;;21.83;62.47;99290.56;2178448;41;20077;-87
2021/07/05 12:27:19;;;;;;;2.92;1.02;;;;;;;21.87;62.45;99289.84;2177975;41;20032;-88
2021/07/05 12:29:01;;;;;;;2.22;0.80;;;;;;;21.93;62.31;99291.59;2178510;41;20029;-89
2021/07/05 12:30:33;;;;;;;3.33;0.90;;;;;;;21.91;62.51;99291.03;2196073;40;20043;-88
2021/07/05 12:32:13;;;;;;;2.13;0.85;;;;;;;21.91;62.48;99290.19;2207683;40;20027;-88
2021/07/05 12:33:47;;;;;;;2.72;0.77;;;;;;;21.89;62.49;99293.16;2209542;40;20022;-89
2021/07/05 12:35:20;;;;;;;2.78;0.90;;;;;;;21.88;62.69;99288.78;2199745;40;20054;-89
2021/07/05 12:38:27;;;;;;;2.53;0.88;;;;;;;21.89;62.28;99290.44;2202773;40;20037;-88
2021/07/05 12:41:36;;;;;;;3.17;0.70;;;;;;;21.97;62.52;99295.53;2213410;40;20069;-88
2021/07/05 12:43:12;;;;;;;3.28;0.90;;;;;;;22.05;62.25;99301.66;2213884;40;20494;-87
2021/07/05 12:44:43;;;;;;;2.28;0.85;;;;;;;22.04;62.14;99305.44;2215481;40;20022;-89
2021/07/05 12:46:15;;;;;;;3.22;1.10;;;;;;;21.96;62.45;99301.22;2213954;40;20033;-89
2021/07/05 12:47:56;;;;;;;3.92;1.20;;;;;;;21.86;62.67;99304.50;2215515;40;20030;-85
2021/07/05 12:49:27;;;;;;;3.72;0.95;;;;;;;21.81;62.76;99307.94;2215268;40;20038;-86
2021/07/05 12:51:01;;;;;;;3.90;1.05;;;;;;;21.82;62.91;99308.78;2215578;40;20026;-87
2021/07/05 12:52:32;;;;;;;2.67;1.00;;;;;;;21.78;63.28;99318.47;2216158;40;20041;-88
2021/07/05 12:54:18;;;;;;;3.08;0.93;;;;;;;21.71;64.22;99320.50;2216181;40;20022;-87
2021/07/05 12:56:02;;;;;;;3.35;1.02;;;;;;;21.59;65.49;99326.75;2215398;40;20041;-87
2021/07/05 12:57:32;;;;;;;3.08;1.05;;;;;;;21.47;67.24;99317.72;2215409;40;20022;-83
2021/07/05 12:59:16;;;;;;;2.25;0.90;;;;;;;21.45;67.99;99308.94;2224885;40;20033;-85
2021/07/05 13:00:49;;;;;;;4.20;1.05;;;;;;;21.55;68.19;99316.53;2223891;40;20037;-83
2021/07/05 13:02:25;;;;;;;3.60;1.17;;;;;;;21.64;68.57;99298.84;2225274;40;20040;-84
2021/07/05 13:03:59;;;;;;;3.75;1.33;;;;;;;21.60;68.86;99316.69;2226833;40;20026;-87
2021/07/05 13:05:30;;;;;;;3.50;1.27;;;;;;;21.56;68.82;99304.59;2214575;40;20041;-84
2021/07/05 13:07:03;;;;;;;3.38;1.10;;;;;;;21.55;69.28;99311.91;2215547;40;20026;-88
2021/07/05 13:15:12;;;;;;;3.22;0.98;;;;;;;21.79;68.34;99309.25;2221642;40;20041;-87
2021/07/05 13:16:44;;;;;;;4.75;1.10;;;;;;;21.89;68.22;99301.31;2202745;40;20031;-86
2021/07/05 13:18:18;;;;;;;4.10;1.23;;;;;;;21.96;67.83;99298.50;2214868;40;20038;-85
2021/07/05 13:19:52;;;;;;;3.67;1.48;;;;;;;21.96;67.45;99287.59;2215565;40;20022;-88
2021/07/05 13:21:33;;;;;;;2.40;0.98;;;;;;;22.05;67.25;99297.06;2215930;40;20054;-88
2021/07/05 13:23:04;;;;;;;;;;;;;;;22.09;66.92;99297.41;2216501;40;20066;-88
2021/07/05 13:24:42;;;;;;;4.25;0.90;;;;;;;22.12;66.49;99294.19;2215941;40;19937;-85
2021/07/05 13:26:14;;;;;;;3.10;1.38;;;;;;;22.14;66.45;99297.50;2215647;40;20037;-89
2021/07/05 13:27:45;;;;;;;2.75;0.80;;;;;;;22.18;66.26;99298.69;2216130;40;20417;-92
2021/07/05 13:29:18;;;;;;;2.72;0.88;;;;;;;22.28;66.08;99298.06;2216072;40;20025;-89
2021/07/05 13:30:55;;;;;;;4.38;1.00;;;;;;;22.41;65.66;99291.56;2216527;40;20025;-88
2021/07/05 13:32:28;;;;;;;4.45;0.98;;;;;;;22.53;65.00;99280.66;2213157;40;20030;-87
2021/07/05 13:33:59;;;;;;;13.65;7.70;;;;;;;22.61;64.56;99282.13;2203138;40;20525;-88
2021/07/05 13:35:34;;;;;;;5.38;1.65;;;;;;;22.62;63.93;99294.69;2204264;40;20033;-85
2021/07/05 13:37:07;;;;;;;4.50;1.73;;;;;;;22.65;64.04;99294.22;2225990;40;20033;-86
2021/07/05 13:38:43;;;;;;;2.42;0.85;;;;;;;22.58;62.20;99288.91;2227001;40;20041;-85
2021/07/05 13:40:21;;;;;;;2.20;0.75;;;;;;;22.45;62.50;99284.56;2226933;40;20041;-85
2021/07/05 13:42:01;;;;;;;4.53;1.10;;;;;;;22.40;63.13;99289.91;2225474;40;20037;-87
2021/07/05 13:43:34;;;;;;;2.13;0.75;;;;;;;22.44;63.39;99293.81;2215467;40;20030;-86
2021/07/05 13:45:12;;;;;;;2.00;0.70;;;;;;;22.53;62.77;99275.19;2215235;40;20038;-86
2021/07/05 13:46:45;;;;;;;2.92;0.70;;;;;;;22.48;62.90;99285.97;2221969;40;20038;-89
2021/07/05 13:48:18;;;;;;;4.30;1.58;;;;;;;22.45;63.14;99284.56;2216135;40;20733;-90
2021/07/05 13:50:19;;;;;;;2.58;0.80;;;;;;;22.55;62.89;99279.31;2199760;40;20043;-88
2021/07/05 13:51:52;;;;;;;2.05;0.70;;;;;;;22.68;62.55;99269.19;2202960;40;20039;-91
2021/07/05 13:53:28;;;;;;;2.92;1.00;;;;;;;22.68;62.13;99275.47;2200714;40;20041;-86
2021/07/05 13:54:58;;;;;;;2.08;0.70;;;;;;;22.76;61.75;99277.00;2214316;40;20014;-86
2021/07/05 13:56:33;;;;;;;2.10;0.60;;;;;;;22.87;61.33;99273.38;2215753;40;20085;-85
2021/07/05 13:58:07;;;;;;;2.15;0.77;;;;;;;22.98;61.02;99268.94;2215084;40;20034;-85
2021/07/05 13:59:39;;;;;;;2.75;0.60;;;;;;;23.05;60.88;99274.22;2202527;40;20043;-85
2021/07/05 14:01:14;;;;;;;2.65;0.75;;;;;;;23.08;60.53;99272.91;2201678;40;20049;-86
2021/07/05 14:02:47;;;;;;;3.40;0.80;;;;;;;23.13;60.44;99264.81;2202303;40;20046;-86
2021/07/05 14:04:19;;;;;;;4.13;1.10;;;;;;;23.16;60.56;99258.88;2195691;40;20046;-87
2021/07/05 14:05:53;;;;;;;2.78;0.80;;;;;;;23.26;60.36;99260.97;2190072;40;20042;-86
2021/07/05 14:07:25;;;;;;;2.65;0.68;;;;;;;23.30;59.88;99267.59;2189663;40;20043;-86
2021/07/05 14:08:57;;;;;;;3.30;0.70;;;;;;;23.30;59.86;99262.94;2177660;41;20171;-87
2021/07/05 14:10:28;;;;;;;2.30;0.90;;;;;;;23.27;59.80;99262.63;2177579;41;20168;-86
2021/07/05 14:12:00;;;;;;;1.48;0.60;;;;;;;23.28;59.82;99264.28;2188710;40;20132;-87
2021/07/05 14:13:34;;;;;;;3.03;0.73;;;;;;;23.32;59.66;99271.72;2188282;40;20028;-87
2021/07/05 14:15:08;;;;;;;1.60;0.50;;;;;;;23.34;58.99;99263.28;2190029;40;20035;-88
2021/07/05 14:16:40;;;;;;;2.33;0.80;;;;;;;23.39;58.42;99265.25;2200245;40;20031;-87
2021/07/05 14:18:12;;;;;;;2.20;0.70;;;;;;;23.40;57.73;99265.03;2190661;40;20028;-87
2021/07/05 14:19:45;;;;;;;2.67;0.70;;;;;;;23.38;57.40;99272.63;2198901;40;20394;-87
2021/07/05 14:21:21;;;;;;;1.35;0.50;;;;;;;23.36;57.42;99272.03;2189500;40;20040;-87
2021/07/05 14:22:53;;;;;;;1.55;0.50;;;;;;;23.41;57.38;99272.13;2202701;40;20255;-87
2021/07/05 14:24:24;;;;;;;1.55;0.50;;;;;;;23.42;57.46;99267.50;2202874;40;20035;-85
2021/07/05 14:25:58;;;;;;;2.80;0.50;;;;;;;23.43;57.61;99264.50;2202626;40;20035;-87
2021/07/05 14:27:29;;;;;;;1.98;0.63;;;;;;;23.45;57.38;99269.72;2201864;40;20050;-87
2021/07/05 14:29:00;;;;;;;2.22;0.65;;;;;;;23.47;57.17;99262.94;2203587;40;20038;-88
2021/07/05 14:30:32;;;;;;;2.28;0.50;;;;;;;23.46;56.67;99271.38;2203437;40;20043;-87
2021/07/05 14:32:05;;;;;;;1.58;0.63;;;;;;;23.38;56.66;99269.91;2196203;40;20469;-87
2021/07/05 14:33:39;;;;;;;2.97;0.60;;;;;;;23.49;56.47;99257.22;2203319;40;20047;-86
2021/07/05 14:35:11;;;;;;;2.67;0.75;;;;;;;23.67;55.71;99261.59;2203442;40;20034;-88
2021/07/05 14:36:44;;;;;;;2.25;0.93;;;;;;;23.73;54.17;99255.13;2203118;40;20039;-88
2021/07/05 14:38:15;;;;;;;1.60;0.47;;;;;;;24.02;53.63;99243.28;2202873;40;20038;-89
2021/07/05 14:39:46;;;;;;;3.17;0.52;;;;;;;24.13;52.96;99242.34;2203657;40;20056;-88
2021/07/05 14:41:19;;;;;;;2.28;0.70;;;;;;;24.40;52.35;99239.63;2203783;40;20093;-89
2021/07/05 14:42:55;;;;;;;2.05;0.60;;;;;;;24.48;51.96;99232.06;2203773;40;20086;-88
2021/07/05 14:44:27;;;;;;;3.67;0.70;;;;;;;24.57;51.66;99233.25;2203622;40;20554;-87
2021/07/05 14:45:59;;;;;;;2.38;0.60;;;;;;;24.62;51.15;99233.31;2202892;40;20039;-86
2021/07/05 14:47:30;;;;;;;0.95;0.43;;;;;;;24.48;50.82;99221.13;2203238;40;20149;-86
2021/07/05 14:49:04;;;;;;;1.33;0.50;;;;;;;24.35;51.51;99228.66;2196157;40;20082;-86
2021/07/05 14:50:36;;;;;;;2.70;0.80;;;;;;;24.38;51.61;99230.06;2202835;40;20030;-85
2021/07/05 14:52:07;;;;;;;1.60;0.50;;;;;;;24.27;51.77;99237.31;2203286;40;20022;-88
2021/07/05 14:55:30;;;;;;;1.65;0.60;;;;;;;24.07;52.39;99236.00;2203337;40;20046;-85
2021/07/05 14:57:02;;;;;;;1.35;0.52;;;;;;;24.01;52.28;99241.63;2203371;40;20025;-86
2021/07/05 14:58:34;;;;;;;0.85;0.40;;;;;;;23.94;52.56;99230.88;2203681;40;20042;-90
2021/07/05 15:00:08;;;;;;;1.40;0.47;;;;;;;23.90;52.68;99238.72;2203332;40;20051;-85
2021/07/05 15:01:40;;;;;;;1.98;0.60;;;;;;;23.87;52.88;99239.22;2196224;40;20031;-85
2021/07/05 15:03:15;;;;;;;1.92;0.55;;;;;;;23.90;52.87;99236.00;2202870;40;20321;-87
2021/07/05 15:04:47;;;;;;;2.00;0.63;;;;;;;23.87;53.38;99247.41;2202611;40;20107;-85
2021/07/05 15:06:19;;;;;;;1.15;0.40;;;;;;;23.83;53.93;99243.56;2203146;40;20058;-86
2021/07/05 15:07:52;;;;;;;1.42;0.57;;;;;;;23.90;53.83;99243.38;2203214;40;20093;-87
2021/07/05 15:09:23;;;;;;;1.98;0.60;;;;;;;23.86;54.59;99250.41;2202867;40;20035;-87
2021/07/05 15:12:27;;;;;;;3.22;0.50;;;;;;;23.82;54.67;99250.91;2220837;40;20436;-87
2021/07/05 15:13:59;;;;;;;2.28;0.70;;;;;;;23.78;54.80;99246.19;2219673;40;20585;-86
2021/07/05 15:15:32;;;;;;;2.05;0.65;;;;;;;23.79;54.94;99250.59;2220974;40;20124;-89
2021/07/05 15:17:03;;;;;;;2.50;0.70;;;;;;;23.71;55.61;99248.28;2207553;40;20556;-84
2021/07/05 15:18:35;;;;;;;1.65;0.52;;;;;;;23.59;55.95;99243.75;2220757;40;20033;-85
2021/07/05 15:20:12;;;;;;;2.13;0.80;;;;;;;23.56;56.18;99248.88;2222162;40;20034;-88
2021/07/05 15:21:44;;;;;;;2.10;0.70;;;;;;;23.58;56.18;99244.00;2221831;40;20025;-90
2021/07/05 15:23:16;;;;;;;1.52;0.52;;;;;;;23.56;55.84;99240.72;2222215;40;20437;-89
2021/07/05 15:24:50;;;;;;;2.88;1.00;;;;;;;23.53;55.55;99240.13;2222403;40;20045;-87
2021/07/05 15:26:29;;;;;;;1.95;0.50;;;;;;;23.53;55.84;99248.31;2221037;40;20116;-86
2021/07/05 15:28:06;;;;;;;1.80;0.50;;;;;;;23.51;56.18;99253.22;2203321;40;20525;-91
2021/07/05 15:29:42;;;;;;;2.05;0.60;;;;;;;23.57;56.37;99250.53;2218526;40;20064;-86
2021/07/05 15:31:27;;;;;;;2.13;0.65;;;;;;;23.65;56.07;99255.56;2218163;40;20024;-88
2021/07/05 15:33:05;;;;;;;1.80;0.70;;;;;;;23.60;56.42;99260.97;2224285;40;20033;-86
2021/07/05 15:34:54;;;;;;;1.67;0.80;;;;;;;23.58;56.35;99253.00;2215663;40;20030;-89
2021/07/05 15:36:34;;;;;;;2.10;0.65;;;;;;;23.55;55.96;99248.06;2219859;40;20022;-86
2021/07/05 15:38:15;;;;;;;1.77;0.73;;;;;;;23.57;55.41;99245.91;2215381;40;20030;-87
2021/07/05 15:41:56;;;;;;;1.13;0.50;;;;;;;23.45;55.73;99248.72;2191422;40;20039;-90
2021/07/05 15:45:02;;;;;;;2.72;0.82;;;;;;;23.36;55.21;99263.84;2221483;40;20052;-90
2021/07/05 15:46:35;;;;;;;2.47;0.70;;;;;;;23.28;55.48;99254.22;2203664;40;20023;-90
2021/07/05 15:48:07;;;;;;;2.63;1.00;;;;;;;23.36;55.05;99248.34;2190923;40;20031;-87
2021/07/05 15:49:41;;;;;;;4.60;0.80;;;;;;;23.44;54.98;99257.16;2219368;40;20115;-85
2021/07/05 15:51:13;;;;;;;2.53;0.90;;;;;;;23.47;54.69;99248.50;2226621;40;20106;-86
2021/07/05 15:52:50;;;;;;;2.45;0.77;;;;;;;23.47;54.54;99256.69;2227845;40;20037;-85
2021/07/05 15:57:29;;;;;;;1.80;0.75;;;;;;;23.45;54.55;99262.38;2218899;40;20049;-92
2021/07/05 15:59:00;;;;;;;2.55;1.00;;;;;;;23.50;54.35;99257.00;2208628;40;20042;-90
2021/07/05 16:00:33;;;;;;;1.83;0.70;;;;;;;23.55;54.06;99261.72;2197458;40;20038;-85
2021/07/05 16:05:17;;;;;;;3.85;1.83;;;;;;;23.62;53.13;99245.16;2221240;40;20732;-90
2021/07/05 16:06:49;;;;;;;2.20;0.80;;;;;;;23.63;53.33;99255.00;2206472;40;20026;-87
2021/07/05 16:08:21;;;;;;;1.38;0.70;;;;;;;23.72;52.58;99245.28;2216103;40;20030;-88
2021/07/05 16:09:53;;;;;;;2.42;0.90;;;;;;;23.80;52.28;99250.34;2216168;40;20033;-86
2021/07/05 16:11:26;;;;;;;1.88;0.60;;;;;;;23.87;51.99;99243.88;2215954;40;20040;-88
2021/07/05 16:12:58;;;;;;;1.67;0.57;;;;;;;23.90;51.38;99244.19;2215232;40;20041;-84
2021/07/05 16:14:33;;;;;;;1.50;0.55;;;;;;;23.86;51.34;99242.22;2215323;40;20045;-89
2021/07/05 16:16:05;;;;;;;1.70;0.60;;;;;;;23.93;51.02;99237.41;2216081;40;20025;-87
2021/07/05 16:20:45;;;;;;;2.05;0.70;;;;;;;24.16;50.05;99232.81;2221620;40;20110;-88
2021/07/05 16:23:51;;;;;;;6.10;2.10;;;;;;;24.22;48.98;99223.59;2220637;40;20191;-88
2021/07/05 16:25:22;;;;;;;2.60;0.82;;;;;;;24.11;49.16;99217.19;2221235;40;20026;-87
2021/07/05 16:26:54;;;;;;;2.58;0.90;;;;;;;24.14;49.12;99214.78;2209893;40;20034;-87
2021/07/05 16:28:25;;;;;;;5.43;2.47;;;;;;;24.08;49.07;99207.63;2192057;40;20323;-89
2021/07/05 16:29:57;;;;;;;4.07;1.58;;;;;;;24.10;49.28;99210.09;2185693;40;20031;-89
2021/07/05 16:31:29;;;;;;;4.25;1.08;;;;;;;24.10;49.28;99205.44;2184364;40;20040;-89
2021/07/05 16:37:48;;;;;;;1.58;0.60;;;;;;;24.10;49.07;99183.59;2222579;40;20066;-89
2021/07/05 16:39:21;;;;;;;1.50;0.60;;;;;;;24.17;49.50;99188.88;2210118;40;20042;-88
2021/07/05 16:40:54;;;;;;;2.10;0.70;;;;;;;24.21;49.24;99183.72;2192090;40;20027;-87
2021/07/05 16:42:32;;;;;;;3.33;0.73;;;;;;;24.22;49.18;99188.94;2189985;40;20023;-90
2021/07/05 16:44:05;;;;;;;3.40;1.08;;;;;;;24.19;48.91;99185.88;2198233;40;20460;-89
2021/07/05 16:50:18;;;;;;;4.20;0.90;;;;;;;24.35;48.22;99195.91;2222199;40;20115;-90
2021/07/05 16:53:22;;;;;;;2.05;0.70;;;;;;;24.44;48.30;99197.09;2222311;40;20385;-88
2021/07/05 16:54:57;;;;;;;3.83;0.98;;;;;;;24.51;48.37;99198.78;2209945;40;20030;-89
2021/07/05 16:56:30;;;;;;;2.53;0.95;;;;;;;24.53;48.01;99204.81;2197673;40;20039;-88
2021/07/05 16:58:02;;;;;;;2.35;0.77;;;;;;;24.55;48.11;99205.41;2198025;40;20044;-89
2021/07/05 16:59:40;;;;;;;2.22;0.80;;;;;;;24.50;48.30;99210.78;2198273;40;20308;-90
2021/07/05 17:01:14;;;;;;;2.40;0.68;;;;;;;24.49;48.73;99222.78;2185661;40;20043;-86
2021/07/05 17:02:52;;;;;;;2.78;0.80;;;;;;;24.48;49.41;99218.41;2167490;41;20074;-87
2021/07/05 17:04:24;;;;;;;2.83;0.82;;;;;;;24.40;49.85;99215.06;2178894;41;20055;-88
2021/07/05 17:05:55;;;;;;;2.78;0.70;;;;;;;24.36;50.38;99213.94;2183170;40;20044;-87
2021/07/05 17:10:39;;;;;;;1.83;0.70;;;;;;;24.35;50.47;99217.75;2222263;40;20058;-86
2021/07/05 17:12:11;;;;;;;2.20;0.60;;;;;;;24.32;50.25;99215.53;2197948;40;20078;-88
2021/07/05 17:13:43;;;;;;;2.15;0.70;;;;;;;24.27;50.28;99216.28;2191536;40;20027;-86
2021/07/05 17:15:14;;;;;;;1.45;0.50;;;;;;;24.26;50.06;99220.09;2195494;40;20024;-89
2021/07/05 17:16:47;;;;;;;1.52;0.80;;;;;;;24.26;49.71;99213.81;2184998;40;20052;-85
2021/07/05 17:19:51;;;;;;;1.95;0.60;;;;;;;24.19;50.15;99215.91;2221012;40;20033;-86
2021/07/05 17:21:23;;;;;;;2.03;0.68;;;;;;;24.19;49.88;99218.63;2222030;40;20021;-88
2021/07/05 17:22:55;;;;;;;2.08;0.73;;;;;;;24.21;49.92;99222.78;2221863;40;20045;-90
2021/07/05 17:24:27;;;;;;;3.78;0.80;;;;;;;24.25;50.00;99223.09;2221829;40;20403;-87
2021/07/05 17:26:00;;;;;;;2.17;0.65;;;;;;;24.28;50.16;99226.13;2221865;40;20080;-86
2021/07/05 17:27:31;;;;;;;2.20;0.75;;;;;;;24.28;49.89;99233.47;2221244;40;20046;-87
2021/07/05 17:29:04;;;;;;;2.10;0.68;;;;;;;24.33;49.96;99236.28;2220618;40;20033;-85
2021/07/05 17:30:36;;;;;;;1.75;0.70;;;;;;;24.39;49.82;99228.97;2220919;40;20153;-87
2021/07/05 17:32:09;;;;;;;1.67;0.60;;;;;;;24.42;49.86;99237.47;2209668;40;20026;-87
2021/07/05 17:33:42;;;;;;;2.05;0.80;;;;;;;24.42;49.82;99236.66;2207885;40;20026;-87
2021/07/05 17:35:19;;;;;;;1.88;0.60;;;;;;;24.42;49.86;99229.28;2209365;40;20035;-87
2021/07/05 17:36:51;;;;;;;1.92;0.80;;;;;;;24.47;50.07;99238.63;2207991;40;20014;-88
2021/07/05 17:38:22;;;;;;;2.50;0.85;;;;;;;24.47;50.13;99242.19;2202085;40;20193;-87
2021/07/05 17:39:54;;;;;;;2.33;0.82;;;;;;;24.44;50.25;99243.53;2207296;40;20035;-84
2021/07/05 17:41:27;;;;;;;2.08;0.63;;;;;;;24.40;50.14;99245.09;2204176;40;20488;-85
2021/07/05 17:42:59;;;;;;;2.75;0.88;;;;;;;24.39;50.19;99248.91;2206184;40;20035;-84
2021/07/05 17:44:30;;;;;;;2.60;0.80;;;;;;;24.34;50.74;99242.56;2219147;40;20009;-86
2021/07/05 17:46:02;;;;;;;2.53;1.00;;;;;;;24.32;50.91;99245.56;2228118;40;20032;-86
2021/07/05 17:47:34;;;;;;;4.60;1.00;;;;;;;24.30;50.66;99244.97;2228209;40;20048;-85
2021/07/05 17:49:06;;;;;;;2.72;1.00;;;;;;;24.32;50.85;99251.03;2228275;40;20040;-86
2021/07/05 17:50:37;;;;;;;3.65;1.05;;;;;;;24.30;51.16;99242.25;2215720;40;20139;-85
2021/07/05 17:52:08;;;;;;;3.28;1.08;;;;;;;24.21;51.16;99244.63;2226847;40;20025;-85
2021/07/05 17:53:41;;;;;;;2.78;1.10;;;;;;;24.21;51.23;99241.06;2228451;40;20432;-87
2021/07/05 17:55:12;;;;;;;3.40;1.20;;;;;;;24.16;51.41;99239.09;2209922;40;20034;-84
2021/07/05 17:56:46;;;;;;;3.25;1.27;;;;;;;24.12;51.42;99236.03;2220079;40;20462;-83
2021/07/05 17:58:19;;;;;;;2.60;0.90;;;;;;;24.13;51.58;99237.69;2216250;40;20034;-87
2021/07/05 17:59:50;;;;;;;3.13;0.90;;;;;;;24.13;51.15;99234.97;2216217;40;20045;-87
2021/07/05 18:01:22;;;;;;;3.47;0.80;;;;;;;24.12;51.16;99236.03;2216141;40;20029;-87
2021/07/05 18:02:54;;;;;;;3.08;0.90;;;;;;;24.12;51.19;99233.31;2212723;40;20033;-88
2021/07/05 18:04:30;;;;;;;1.63;0.68;;;;;;;24.12;51.25;99236.03;2216286;40;20030;-90
2021/07/05 18:06:02;;;;;;;1.95;0.70;;;;;;;24.12;50.85;99241.50;2208720;40;20054;-85
2021/07/05 18:07:36;;;;;;;2.60;1.00;;;;;;;24.08;50.95;99240.38;2206392;40;20154;-90
2021/07/05 18:10:50;;;;;;;3.10;1.20;;;;;;;24.11;50.96;99245.31;2221906;40;20587;-88
2021/07/05 18:12:24;;;;;;;2.50;0.80;;;;;;;24.07;51.11;99236.00;2220390;40;20642;-84
2021/07/05 18:13:56;;;;;;;2.47;0.88;;;;;;;24.05;51.03;99229.13;2220744;40;20372;-85
2021/07/05 18:15:29;;;;;;;2.45;0.80;;;;;;;24.02;50.98;99230.44;2221203;40;20040;-86
2021/07/05 18:17:01;;;;;;;1.95;0.80;;;;;;;23.96;50.92;99226.81;2220424;40;20046;-84
2021/07/05 18:20:07;;;;;;;2.42;1.00;;;;;;;23.94;51.44;99222.69;2221378;40;20523;-89
2021/07/05 18:21:41;;;;;;;3.53;0.88;;;;;;;23.94;51.39;99222.69;2209864;40;20037;-90